Antequera, Spain
Current Conditions -  °F | °C
As of 11:00 AM on Sunday 25 Jan 2015 (Local Time) from LEMG Reporting Station
Clear Clear  
Wind Chill: 57°   Ceiling: Unl
Heat Index: 57°   Visibility: 6mi
Dew Point: 34°   Wind: 22mph
Humidity: 41%   Direction: 270°W
Pressure: 30.21"   Gusts: NA
Location:  37.02°N, 4.56°W
Report Text: LEMG 251000Z 27019KT CAVOK 14/01 Q1023 NOSIG
Loading
Personal Weather Stations






























Interactive Weather Map New forecast layout! Learn more

10-Day Weather Forecast

Advertisements
Track Severe Weather on mobile